• Join FlightAware (Why Join?)
  • Login
  • US Flag 
03:07PM EST


 

Airport Tracker/Info


-or-


 

Live Flight TrackerFlight Track Log ✈ JBU56 ✈ 28-Jul-2013 ✈ KIAD - KBOS

Flight Track Log - Related Links

Times and Time Zones

All times are in EDT time to prevent confusion due to time zone crossing. See the JBU56 flight status page for this flight to view local times or setup timezone preferences in your user account.

Time Position Orientation Groundspeed Altitude Reporting Facility
EDT Latitude Longitude Course Direction KTS MPH feet Rate Location/Type
09:20AM 38.9833 -77.5333 74° East 195 224 2,600  Level Potomac TRACON
09:21AM 39.0500 -77.5000 21° North 276 318 5,500 3,060 Climbing Potomac TRACON
09:22AM 39.0306 -76.9485 77° East  Level FlightAware Approximate
09:22AM 39.1167 -77.4500 30° Northeast 302 348 8,800  Level Potomac TRACON
09:23AM 39.0527 -76.8174 78° East  Level FlightAware Approximate
09:23AM 39.1264 -77.2961 85° East 330 380 10,600  Level Washington Center
09:24AM 39.0667 -76.6849 90° East  Level FlightAware Approximate
09:24AM 39.1031 -77.1725 104° East 336 387 13,000  Level Washington Center
09:25AM 39.0854 -76.5573 74° East  Level FlightAware Approximate
09:25AM 39.1006 -77.0358 91° East 355 409 15,700  Level Washington Center
09:26AM 39.1106 -76.8944 85° East 377 434 18,200 2,400 Climbing Washington Center
09:27AM 39.1206 -76.7472 85° East 396 456 20,500 2,040 Climbing Washington Center
09:28AM 39.1281 -76.5975 86° East 406 467 22,300 1,200 Climbing Washington Center
09:29AM 39.1375 -76.4425 85° East 423 487 23,000 780 Climbing Washington Center
09:30AM 39.1447 -76.2875 87° East 428 493 23,900 1,020 Climbing Washington Center
09:31AM 39.1622 -76.1458 81° East 428 493 25,100 1,080 Climbing Washington Center
09:32AM 39.2003 -75.9906 72° East 436 502 26,100 960 Climbing Washington Center
09:33AM 39.2883 -75.8544 50° Northeast 451 519 27,100 900 Climbing Washington Center
09:34AM 39.3758 -75.7203 50° Northeast 470 541 28,000 900 Climbing Washington Center
09:35AM 39.4656 -75.5781 51° Northeast 491 565 28,900 1,020 Climbing Washington Center
09:36AM 39.5531 -75.4381 51° Northeast 496 571 30,100 1,020 Climbing Washington Center
09:37AM 39.6444 -75.2978 50° Northeast 496 571 31,000 420 Climbing Washington Center
09:38AM 39.7419 -75.1569 48° Northeast 507 583 31,000  Level Washington Center
09:39AM 39.8494 -74.9997 48° Northeast 531 611 31,000  Level Washington Center
09:40AM 39.9575 -74.8492 47° Northeast 519 597 31,000  Level New York Center
09:41AM 40.0519 -74.7111 48° Northeast 519 597 31,000  Level New York Center
09:42AM 40.1442 -74.5642 51° Northeast 519 597 31,000  Level New York Center
09:43AM 40.2297 -74.4331 49° Northeast 519 597 31,000  Level New York Center
09:44AM 40.3239 -74.2883 49° Northeast 519 597 31,000  Level New York Center
09:45AM 40.4156 -74.1458 50° Northeast 513 590 31,000  Level New York Center
09:46AM 40.5069 -74.0000 50° Northeast 513 590 31,000 -240 Level New York Center
09:47AM 40.6072 -73.8381 51° Northeast 513 590 30,600 -1,920 Descending New York Center
09:50AM 40.8031 -73.5231 51° Northeast 495 570 24,900 -2,040 Descending Boston Center
09:51AM 40.8875 -73.3928 49° Northeast 481 554 24,000 -480 Descending Boston Center
09:52AM 40.9761 -73.2647 47° Northeast 465 535 24,000 -360 Level Boston Center
09:53AM 41.0603 -73.1447 47° Northeast 454 522 23,300 -540 Descending Boston Center
09:54AM 41.1444 -73.0189 48° Northeast 454 522 23,000 -180 Descending Boston Center
09:55AM 41.2261 -72.8844 51° Northeast 459 528 23,000  Level Boston Center
09:56AM 41.2872 -72.7328 62° Northeast 468 539 23,000  Level Boston Center
09:57AM 41.3375 -72.5783 67° East 462 532 23,000  Level Boston Center
09:58AM 41.3897 -72.4261 65° Northeast 452 520 23,000 -780 Level Boston Center
09:59AM 41.4417 -72.2739 65° Northeast 452 520 21,500 -1,740 Descending Boston Center
10:00AM 41.4872 -72.1436 65° Northeast 440 506 19,600 -2,100 Descending Boston Center
10:01AM 41.5408 -71.9908 65° Northeast 425 489 17,500 -2,100 Descending Boston Center
10:02AM 41.5861 -71.8517 66° East 415 478 15,400 -1,920 Descending Boston Center
10:03AM 41.6269 -71.7347 65° Northeast 393 452 13,700 -1,860 Descending Boston Center
10:04AM 41.6719 -71.5953 67° East 378 435 11,700 -1,380 Descending Boston Center
10:05AM 41.7067 -71.4892 66° East 359 413 11,000 -360 Descending Boston Center
10:06AM 41.7553 -71.3575 64° Northeast 343 395 11,000  Level Boston Center
10:07AM 41.7981 -71.2594 60° Northeast 338 389 11,000  Level Boston Center
10:08AM 41.8850 -71.1908 30° Northeast 324 373 11,000 -420 Level Boston Center
10:09AM 41.9636 -71.1389 26° Northeast 329 379 10,200 -1,020 Descending Boston Center
10:09AM 42.0167 -71.1000 29° Northeast 314 361 9,400 -1,500 Descending KA90
10:10AM 42.0833 -71.0667 20° North 304 350 8,200 -780 Descending KA90
10:11AM 42.1667 -71.0167 24° Northeast 304 350 8,000 -120 Descending KA90
10:12AM 42.2500 -70.9833 16° North 297 342 8,000 -300 Level KA90
10:13AM 42.3167 -70.9500 20° North 295 339 7,400 -900 Descending KA90
10:14AM 42.4000 -70.9333 North 294 338 6,400 -720 Descending KA90
10:15AM 42.4667 -70.9500 350° North 247 284 6,000 -420 Descending KA90
10:16AM 42.5167 -71.0000 324° Northwest 229 264 5,600 -660 Descending KA90
10:17AM 42.5500 -71.0500 312° West 228 262 4,800 -900 Descending KA90
10:18AM 42.6000 -71.1000 324° Northwest 208 239 4,000 -420 Descending KA90
10:19AM 42.6167 -71.1667 289° West 200 230 4,000  Level KA90
10:20AM 42.6000 -71.2500 255° West 197 227 4,000  Level KA90
10:21AM 42.5500 -71.2667 194° South 194 223 4,000 -60 Level KA90
10:22AM 42.5167 -71.2167 132° Southeast 199 229 3,900 -600 Descending KA90
10:23AM 42.4667 -71.1500 135° Southeast 202 232 2,800 -1,080 Descending KA90
10:24AM 42.4333 -71.1000 132° Southeast 191 220 1,800 -960 Descending KA90
10:25AM 42.4000 -71.0500 132° Southeast 163 188 900 -900 Descending KA90